Time,TemperatureF,DewpointF,PressureIn,WindDirection,WindDirectionDegrees,WindSpeedMPH,WindSpeedGustMPH,Humidity,HourlyPrecipIn,Conditions,Clouds,dailyrainin,SoftwareType,DateUTC
2013-04-18 00:00:00,40.0,34.0,30.05,South,170,22.0,29.0,79,-99.99,,,-99.99,,2013-04-18 08:00:00,
2013-04-18 00:41:00,40.0,34.0,30.05,South,170,22.0,29.0,79,-99.99,,,-99.99,,2013-04-18 08:41:00,
2013-04-18 00:51:00,40.0,34.0,30.05,South,170,22.0,29.0,79,-99.99,,,-99.99,,2013-04-18 08:51:00,
2013-04-18 01:00:00,40.0,34.0,30.05,SSE,160,21.0,30.0,79,-99.99,,,-99.99,,2013-04-18 09:00:00,
2013-04-18 01:42:00,40.0,34.0,30.05,SSE,160,21.0,30.0,79,-99.99,,,-99.99,,2013-04-18 09:42:00,
2013-04-18 01:52:00,40.0,34.0,30.05,SSE,160,21.0,30.0,79,-99.99,,,-99.99,,2013-04-18 09:52:00,
2013-04-18 02:00:00,39.0,34.0,30.06,SSE,160,18.0,31.0,81,-99.99,,,-99.99,,2013-04-18 10:00:00,
2013-04-18 02:42:00,39.0,34.0,30.06,SSE,160,18.0,31.0,81,-99.99,,,-99.99,,2013-04-18 10:42:00,
2013-04-18 02:52:00,39.0,34.0,30.06,SSE,160,18.0,31.0,81,-99.99,,,-99.99,,2013-04-18 10:52:00,
2013-04-18 03:00:00,39.0,34.0,30.04,South,170,20.0,24.0,81,-99.99,,,-99.99,,2013-04-18 11:00:00,
2013-04-18 03:42:00,39.0,34.0,30.04,South,170,20.0,24.0,81,-99.99,,,-99.99,,2013-04-18 11:42:00,
2013-04-18 03:52:00,39.0,34.0,30.04,South,170,20.0,24.0,81,-99.99,,,-99.99,,2013-04-18 11:52:00,
2013-04-18 04:00:00,39.0,33.0,30.02,South,170,22.0,29.0,79,-99.99,,,-99.99,,2013-04-18 12:00:00,
2013-04-18 04:41:00,39.0,33.0,30.02,South,170,22.0,29.0,79,-99.99,,,-99.99,,2013-04-18 12:41:00,
2013-04-18 04:51:00,39.0,33.0,30.02,South,170,22.0,29.0,79,-99.99,,,-99.99,,2013-04-18 12:51:00,
2013-04-18 05:00:00,38.0,34.0,30.03,SSE,160,16.0,28.0,85,-99.99,,,-99.99,,2013-04-18 13:00:00,
2013-04-18 05:42:00,38.0,34.0,30.03,SSE,160,16.0,28.0,85,-99.99,,,-99.99,,2013-04-18 13:42:00,
2013-04-18 05:52:00,38.0,34.0,30.03,SSE,160,16.0,28.0,85,-99.99,,,-99.99,,2013-04-18 13:52:00,
2013-04-18 06:00:00,38.0,33.0,30.01,SSE,150,16.0,26.0,82,-99.99,,,-99.99,,2013-04-18 14:00:00,
2013-04-18 06:42:00,38.0,33.0,30.01,SSE,150,16.0,26.0,82,-99.99,,,-99.99,,2013-04-18 14:42:00,
2013-04-18 06:52:00,38.0,33.0,30.01,SSE,150,16.0,26.0,82,-99.99,,,-99.99,,2013-04-18 14:52:00,
2013-04-18 07:00:00,38.0,33.0,30.00,SSE,150,15.0,22.0,82,-99.99,,,-99.99,,2013-04-18 15:00:00,
2013-04-18 07:42:00,38.0,33.0,30.00,SSE,150,15.0,22.0,82,-99.99,,,-99.99,,2013-04-18 15:42:00,
2013-04-18 07:52:00,38.0,33.0,30.00,SSE,150,15.0,22.0,82,-99.99,,,-99.99,,2013-04-18 15:52:00,
2013-04-18 08:00:00,38.0,30.0,29.99,SE,140,13.0,22.0,72,-99.99,,,-99.99,,2013-04-18 16:00:00,
2013-04-18 08:42:00,38.0,30.0,29.99,SE,140,13.0,22.0,72,-99.99,,,-99.99,,2013-04-18 16:42:00,
2013-04-18 08:52:00,38.0,30.0,29.99,SE,140,13.0,22.0,72,-99.99,,,-99.99,,2013-04-18 16:52:00,
2013-04-18 09:00:00,38.0,32.0,29.99,SE,130,8.0,20.0,78,-99.99,,,-99.99,,2013-04-18 17:00:00,
2013-04-18 09:42:00,38.0,32.0,29.99,SE,130,8.0,20.0,78,-99.99,,,-99.99,,2013-04-18 17:42:00,
2013-04-18 09:51:00,38.0,32.0,29.99,SE,130,8.0,20.0,78,-99.99,,,-99.99,,2013-04-18 17:51:00,
2013-04-18 10:00:00,40.0,24.0,29.98,SSE,160,9.0,15.0,52,-99.99,,,-99.99,,2013-04-18 18:00:00,
2013-04-18 10:41:00,40.0,24.0,29.98,SSE,160,9.0,15.0,52,-99.99,,,-99.99,,2013-04-18 18:41:00,
2013-04-18 10:51:00,40.0,24.0,29.98,SSE,160,9.0,15.0,52,-99.99,,,-99.99,,2013-04-18 18:51:00,
2013-04-18 11:00:00,40.0,32.0,29.98,South,170,15.0,24.0,73,-99.99,,,-99.99,,2013-04-18 19:00:00,
2013-04-18 11:41:00,40.0,32.0,29.98,South,170,15.0,24.0,73,-99.99,,,-99.99,,2013-04-18 19:41:00,
2013-04-18 11:52:00,40.0,32.0,29.98,South,170,15.0,24.0,73,-99.99,,,-99.99,,2013-04-18 19:52:00,
2013-04-18 12:00:00,40.0,33.0,29.97,SSE,160,11.0,22.0,76,-99.99,,,-99.99,,2013-04-18 20:00:00,
2013-04-18 12:41:00,40.0,33.0,29.97,SSE,160,11.0,22.0,76,-99.99,,,-99.99,,2013-04-18 20:41:00,
2013-04-18 12:51:00,40.0,33.0,29.97,SSE,160,11.0,22.0,76,-99.99,,,-99.99,,2013-04-18 20:51:00,
2013-04-18 13:00:00,39.0,30.0,29.96,SW,230,15.0,17.0,69,-99.99,,,-99.99,,2013-04-18 21:00:00,
2013-04-18 13:43:00,39.0,30.0,29.96,SW,230,15.0,17.0,69,-99.99,,,-99.99,,2013-04-18 21:43:00,
2013-04-18 13:52:00,39.0,30.0,29.96,SW,230,15.0,17.0,69,-99.99,,,-99.99,,2013-04-18 21:52:00,
2013-04-18 14:00:00,36.0,32.0,29.96,North,10,8.0,22.0,85,-99.99,,,-99.99,,2013-04-18 22:00:00,
2013-04-18 14:41:00,36.0,32.0,29.96,North,10,8.0,22.0,85,-99.99,,,-99.99,,2013-04-18 22:41:00,
2013-04-18 14:52:00,36.0,32.0,29.96,North,10,8.0,22.0,85,-99.99,,,-99.99,,2013-04-18 22:52:00,
2013-04-18 15:00:00,37.0,32.0,29.95,WNW,300,5.0,11.0,81,-99.99,,,-99.99,,2013-04-18 23:00:00,
2013-04-18 15:42:00,37.0,32.0,29.95,WNW,300,5.0,11.0,81,-99.99,,,-99.99,,2013-04-18 23:42:00,
2013-04-18 15:52:00,37.0,32.0,29.95,WNW,300,5.0,11.0,81,-99.99,,,-99.99,,2013-04-18 23:52:00,
2013-04-18 16:00:00,39.0,32.0,29.95,ESE,110,1.0,-999.0,75,-99.99,,,-99.99,,2013-04-19 00:00:00,
2013-04-18 16:41:00,39.0,32.0,29.95,ESE,110,1.0,-999.0,75,-99.99,,,-99.99,,2013-04-19 00:41:00,
2013-04-18 16:51:00,39.0,32.0,29.95,ESE,110,1.0,-999.0,75,-99.99,,,-99.99,,2013-04-19 00:51:00,
2013-04-18 17:42:00,37.0,33.0,29.95,North,10,22.0,25.0,85,-99.99,,,-99.99,,2013-04-19 01:42:00,
2013-04-18 18:00:00,36.0,30.0,29.92,North,360,22.0,31.0,78,-99.99,,,-99.99,,2013-04-19 02:00:00,
2013-04-18 18:42:00,36.0,30.0,29.92,North,360,22.0,31.0,78,-99.99,,,-99.99,,2013-04-19 02:42:00,
2013-04-18 18:51:00,36.0,30.0,29.92,North,360,22.0,31.0,78,-99.99,,,-99.99,,2013-04-19 02:51:00,
2013-04-18 19:00:00,38.0,28.0,29.92,North,10,26.0,34.0,67,-99.99,,,-99.99,,2013-04-19 03:00:00,
2013-04-18 19:42:00,38.0,28.0,29.92,North,10,26.0,34.0,67,-99.99,,,-99.99,,2013-04-19 03:42:00,
2013-04-18 19:53:00,38.0,28.0,29.92,North,10,26.0,34.0,67,-99.99,,,-99.99,,2013-04-19 03:53:00,
2013-04-18 20:00:00,37.0,28.0,29.93,North,10,31.0,40.0,69,-99.99,,,-99.99,,2013-04-19 04:00:00,
2013-04-18 20:43:00,37.0,28.0,29.93,North,10,31.0,40.0,69,-99.99,,,-99.99,,2013-04-19 04:43:00,
2013-04-18 20:52:00,37.0,28.0,29.93,North,10,31.0,40.0,69,-99.99,,,-99.99,,2013-04-19 04:52:00,
2013-04-18 21:00:00,38.0,27.0,29.94,North,360,24.0,33.0,64,-99.99,,,-99.99,,2013-04-19 05:00:00,
2013-04-18 21:42:00,38.0,27.0,29.94,North,360,24.0,33.0,64,-99.99,,,-99.99,,2013-04-19 05:42:00,
2013-04-18 21:51:00,38.0,27.0,29.94,North,360,24.0,33.0,64,-99.99,,,-99.99,,2013-04-19 05:51:00,
2013-04-18 22:00:00,37.0,26.0,29.95,North,360,28.0,39.0,64,-99.99,,,-99.99,,2013-04-19 06:00:00,
2013-04-18 22:42:00,37.0,26.0,29.95,North,360,28.0,39.0,64,-99.99,,,-99.99,,2013-04-19 06:42:00,
2013-04-18 22:52:00,37.0,26.0,29.95,North,360,28.0,39.0,64,-99.99,,,-99.99,,2013-04-19 06:52:00,
2013-04-18 23:41:00,37.0,26.0,29.96,North,360,29.0,45.0,64,-99.99,,,-99.99,,2013-04-19 07:41:00,